sensor_id;sensor_type;location;lat;lon;timestamp;pressure;altitude;pressure_sealevel;temperature;humidity
52949;BME280;38812;50.942;3.644;2022-08-25T00:01:49;101292.91;;;19.71;100.00
52949;BME280;38812;50.942;3.644;2022-08-25T00:04:17;101271.75;;;19.68;100.00
52949;BME280;38812;50.942;3.644;2022-08-25T00:06:43;101250.81;;;19.60;100.00
52949;BME280;38812;50.942;3.644;2022-08-25T00:09:11;101239.47;;;19.57;100.00
52949;BME280;38812;50.942;3.644;2022-08-25T00:11:38;101231.69;;;19.52;100.00
52949;BME280;38812;50.942;3.644;2022-08-25T00:14:09;101231.16;;;19.45;100.00
52949;BME280;38812;50.942;3.644;2022-08-25T00:16:35;101240.47;;;19.54;100.00
52949;BME280;38812;50.942;3.644;2022-08-25T00:19:05;101236.94;;;19.54;100.00
52949;BME280;38812;50.942;3.644;2022-08-25T00:21:31;101221.91;;;19.52;100.00
52949;BME280;38812;50.942;3.644;2022-08-25T00:23:57;101214.03;;;19.49;100.00
52949;BME280;38812;50.942;3.644;2022-08-25T00:26:23;101213.59;;;19.41;100.00
52949;BME280;38812;50.942;3.644;2022-08-25T00:28:48;101204.34;;;19.31;100.00
52949;BME280;38812;50.942;3.644;2022-08-25T00:31:16;101191.34;;;19.25;100.00
52949;BME280;38812;50.942;3.644;2022-08-25T00:33:44;101175.69;;;19.19;100.00
52949;BME280;38812;50.942;3.644;2022-08-25T00:36:10;101168.47;;;19.21;100.00
52949;BME280;38812;50.942;3.644;2022-08-25T00:38:39;101166.81;;;19.18;100.00
52949;BME280;38812;50.942;3.644;2022-08-25T00:41:05;101164.38;;;19.14;100.00
52949;BME280;38812;50.942;3.644;2022-08-25T00:46:06;101157.97;;;19.18;100.00
52949;BME280;38812;50.942;3.644;2022-08-25T00:48:31;101146.69;;;19.13;100.00
52949;BME280;38812;50.942;3.644;2022-08-25T00:50:57;101150.91;;;19.17;100.00
52949;BME280;38812;50.942;3.644;2022-08-25T00:53:23;101139.19;;;19.04;100.00
52949;BME280;38812;50.942;3.644;2022-08-25T00:55:49;101147.84;;;19.07;100.00
52949;BME280;38812;50.942;3.644;2022-08-25T00:58:18;101165.34;;;19.13;100.00
52949;BME280;38812;50.942;3.644;2022-08-25T01:00:48;101153.44;;;19.03;100.00
52949;BME280;38812;50.942;3.644;2022-08-25T01:03:16;101150.00;;;19.01;100.00
52949;BME280;38812;50.942;3.644;2022-08-25T01:05:44;101136.69;;;19.01;100.00
52949;BME280;38812;50.942;3.644;2022-08-25T01:08:11;101119.91;;;18.99;100.00
52949;BME280;38812;50.942;3.644;2022-08-25T01:10:38;101113.19;;;18.92;100.00
52949;BME280;38812;50.942;3.644;2022-08-25T01:13:13;101121.72;;;18.98;100.00
52949;BME280;38812;50.942;3.644;2022-08-25T01:15:39;101115.91;;;18.90;100.00
52949;BME280;38812;50.942;3.644;2022-08-25T01:18:06;101122.09;;;18.91;100.00
52949;BME280;38812;50.942;3.644;2022-08-25T01:20:32;101138.56;;;18.99;100.00
52949;BME280;38812;50.942;3.644;2022-08-25T01:22:59;101132.91;;;18.88;100.00
52949;BME280;38812;50.942;3.644;2022-08-25T01:25:42;101119.16;;;18.79;100.00
52949;BME280;38812;50.942;3.644;2022-08-25T01:28:10;101118.88;;;18.84;100.00
52949;BME280;38812;50.942;3.644;2022-08-25T01:30:35;101117.44;;;18.78;100.00
52949;BME280;38812;50.942;3.644;2022-08-25T01:33:03;101093.69;;;18.74;100.00
52949;BME280;38812;50.942;3.644;2022-08-25T01:35:29;101054.16;;;18.66;100.00
52949;BME280;38812;50.942;3.644;2022-08-25T01:37:54;101064.28;;;18.60;100.00
52949;BME280;38812;50.942;3.644;2022-08-25T01:40:20;101049.59;;;18.51;100.00
52949;BME280;38812;50.942;3.644;2022-08-25T01:45:19;101089.09;;;18.60;100.00
52949;BME280;38812;50.942;3.644;2022-08-25T01:47:45;101077.22;;;18.48;100.00
52949;BME280;38812;50.942;3.644;2022-08-25T01:50:10;101083.38;;;18.49;100.00
52949;BME280;38812;50.942;3.644;2022-08-25T01:55:09;101043.34;;;18.35;100.00
52949;BME280;38812;50.942;3.644;2022-08-25T01:57:34;101051.16;;;18.38;100.00
52949;BME280;38812;50.942;3.644;2022-08-25T01:59:59;101039.16;;;18.29;100.00
52949;BME280;38812;50.942;3.644;2022-08-25T02:02:25;101057.94;;;18.26;100.00
52949;BME280;38812;50.942;3.644;2022-08-25T02:04:50;101043.34;;;18.35;100.00
52949;BME280;38812;50.942;3.644;2022-08-25T02:07:16;101039.41;;;18.25;100.00
52949;BME280;38812;50.942;3.644;2022-08-25T02:09:42;101032.03;;;18.12;100.00
52949;BME280;38812;50.942;3.644;2022-08-25T02:12:08;101057.06;;;18.26;100.00
52949;BME280;38812;50.942;3.644;2022-08-25T02:14:34;101060.56;;;18.09;100.00
52949;BME280;38812;50.942;3.644;2022-08-25T02:17:01;101029.75;;;18.05;100.00
52949;BME280;38812;50.942;3.644;2022-08-25T02:19:27;101034.41;;;18.00;100.00
52949;BME280;38812;50.942;3.644;2022-08-25T02:21:55;101022.47;;;17.91;100.00
52949;BME280;38812;50.942;3.644;2022-08-25T02:24:20;100997.09;;;17.84;100.00
52949;BME280;38812;50.942;3.644;2022-08-25T02:26:46;100979.94;;;17.91;100.00
52949;BME280;38812;50.942;3.644;2022-08-25T02:29:11;100952.41;;;17.75;100.00
52949;BME280;38812;50.942;3.644;2022-08-25T02:31:37;100963.41;;;17.85;100.00
52949;BME280;38812;50.942;3.644;2022-08-25T02:34:04;100970.16;;;17.92;100.00
52949;BME280;38812;50.942;3.644;2022-08-25T02:36:30;100968.81;;;17.83;100.00
52949;BME280;38812;50.942;3.644;2022-08-25T02:38:57;100966.16;;;17.83;100.00
52949;BME280;38812;50.942;3.644;2022-08-25T02:41:23;100975.34;;;17.76;100.00
52949;BME280;38812;50.942;3.644;2022-08-25T02:43:49;100960.97;;;17.61;100.00
52949;BME280;38812;50.942;3.644;2022-08-25T02:46:17;100962.31;;;17.53;100.00
52949;BME280;38812;50.942;3.644;2022-08-25T02:48:44;100965.91;;;17.52;100.00
52949;BME280;38812;50.942;3.644;2022-08-25T02:51:09;100955.69;;;17.42;100.00
52949;BME280;38812;50.942;3.644;2022-08-25T02:53:37;100942.41;;;17.42;100.00
52949;BME280;38812;50.942;3.644;2022-08-25T02:56:07;100940.69;;;17.41;100.00
52949;BME280;38812;50.942;3.644;2022-08-25T02:58:34;100919.16;;;17.47;100.00
52949;BME280;38812;50.942;3.644;2022-08-25T03:00:59;100913.72;;;17.32;100.00
52949;BME280;38812;50.942;3.644;2022-08-25T03:03:25;100912.41;;;17.40;100.00
52949;BME280;38812;50.942;3.644;2022-08-25T03:05:50;100920.38;;;17.40;100.00
52949;BME280;38812;50.942;3.644;2022-08-25T03:08:16;100914.56;;;17.32;100.00
52949;BME280;38812;50.942;3.644;2022-08-25T03:10:41;100893.63;;;17.26;100.00
52949;BME280;38812;50.942;3.644;2022-08-25T03:13:07;100885.81;;;17.23;100.00
52949;BME280;38812;50.942;3.644;2022-08-25T03:15:32;100880.56;;;17.22;100.00
52949;BME280;38812;50.942;3.644;2022-08-25T03:18:02;100883.94;;;17.25;100.00
52949;BME280;38812;50.942;3.644;2022-08-25T03:20:27;100882.50;;;17.18;100.00
52949;BME280;38812;50.942;3.644;2022-08-25T03:22:54;100882.88;;;17.10;100.00
52949;BME280;38812;50.942;3.644;2022-08-25T03:25:19;100866.59;;;16.99;100.00
52949;BME280;38812;50.942;3.644;2022-08-25T03:28:06;100858.72;;;16.98;100.00
52949;BME280;38812;50.942;3.644;2022-08-25T03:30:31;100851.69;;;16.97;100.00
52949;BME280;38812;50.942;3.644;2022-08-25T03:32:57;100845.50;;;16.96;100.00
52949;BME280;38812;50.942;3.644;2022-08-25T03:35:22;100827.47;;;17.22;100.00
52949;BME280;38812;50.942;3.644;2022-08-25T03:37:48;100828.78;;;17.13;100.00
52949;BME280;38812;50.942;3.644;2022-08-25T03:40:14;100799.06;;;17.24;100.00
52949;BME280;38812;50.942;3.644;2022-08-25T03:42:42;100787.44;;;17.26;100.00
52949;BME280;38812;50.942;3.644;2022-08-25T03:45:09;100786.09;;;17.35;100.00
52949;BME280;38812;50.942;3.644;2022-08-25T03:47:38;100792.91;;;17.40;100.00
52949;BME280;38812;50.942;3.644;2022-08-25T03:50:06;100797.50;;;17.37;100.00
52949;BME280;38812;50.942;3.644;2022-08-25T03:52:33;100804.88;;;17.32;100.00
52949;BME280;38812;50.942;3.644;2022-08-25T03:54:58;100804.44;;;17.22;100.00
52949;BME280;38812;50.942;3.644;2022-08-25T03:57:23;100788.53;;;17.22;100.00
52949;BME280;38812;50.942;3.644;2022-08-25T03:59:49;100769.78;;;17.25;100.00
52949;BME280;38812;50.942;3.644;2022-08-25T04:02:14;100772.28;;;17.28;100.00
52949;BME280;38812;50.942;3.644;2022-08-25T04:04:40;100788.03;;;17.14;100.00
52949;BME280;38812;50.942;3.644;2022-08-25T04:07:05;100792.38;;;16.98;100.00
52949;BME280;38812;50.942;3.644;2022-08-25T04:09:31;100800.78;;;16.89;100.00
52949;BME280;38812;50.942;3.644;2022-08-25T04:11:56;100818.91;;;16.79;100.00
52949;BME280;38812;50.942;3.644;2022-08-25T04:14:22;100818.53;;;16.68;100.00
52949;BME280;38812;50.942;3.644;2022-08-25T04:16:48;100817.84;;;16.64;100.00
52949;BME280;38812;50.942;3.644;2022-08-25T04:19:13;100810.00;;;16.61;100.00
52949;BME280;38812;50.942;3.644;2022-08-25T04:21:39;100802.44;;;16.72;100.00
52949;BME280;38812;50.942;3.644;2022-08-25T04:24:07;100804.00;;;16.76;100.00
52949;BME280;38812;50.942;3.644;2022-08-25T04:26:36;100811.47;;;16.87;100.00
52949;BME280;38812;50.942;3.644;2022-08-25T04:29:04;100814.34;;;16.83;100.00
52949;BME280;38812;50.942;3.644;2022-08-25T04:31:30;100818.56;;;16.87;100.00
52949;BME280;38812;50.942;3.644;2022-08-25T04:33:57;100814.25;;;16.84;100.00
52949;BME280;38812;50.942;3.644;2022-08-25T04:36:23;100801.50;;;16.73;100.00
52949;BME280;38812;50.942;3.644;2022-08-25T04:38:49;100808.25;;;16.81;100.00
52949;BME280;38812;50.942;3.644;2022-08-25T04:41:17;100802.34;;;16.74;100.00
52949;BME280;38812;50.942;3.644;2022-08-25T04:43:43;100796.47;;;16.67;100.00
52949;BME280;38812;50.942;3.644;2022-08-25T04:46:17;100792.19;;;16.65;100.00
52949;BME280;38812;50.942;3.644;2022-08-25T04:48:43;100784.31;;;16.63;100.00
52949;BME280;38812;50.942;3.644;2022-08-25T04:51:12;100777.69;;;16.72;100.00
52949;BME280;38812;50.942;3.644;2022-08-25T04:53:39;100778.41;;;16.75;100.00
52949;BME280;38812;50.942;3.644;2022-08-25T04:56:06;100782.78;;;16.76;100.00
52949;BME280;38812;50.942;3.644;2022-08-25T04:58:33;100786.22;;;16.78;100.00
52949;BME280;38812;50.942;3.644;2022-08-25T05:01:03;100790.47;;;16.83;100.00
52949;BME280;38812;50.942;3.644;2022-08-25T05:03:30;100796.19;;;16.73;100.00
52949;BME280;38812;50.942;3.644;2022-08-25T05:05:56;100783.47;;;16.61;100.00
52949;BME280;38812;50.942;3.644;2022-08-25T05:08:21;100800.22;;;16.63;100.00
52949;BME280;38812;50.942;3.644;2022-08-25T05:10:46;100803.28;;;16.73;100.00
52949;BME280;38812;50.942;3.644;2022-08-25T05:13:12;100819.28;;;16.71;100.00
52949;BME280;38812;50.942;3.644;2022-08-25T05:15:37;100819.00;;;16.77;100.00
52949;BME280;38812;50.942;3.644;2022-08-25T05:18:16;100839.63;;;16.90;100.00
52949;BME280;38812;50.942;3.644;2022-08-25T05:20:41;100850.34;;;16.88;100.00
52949;BME280;38812;50.942;3.644;2022-08-25T05:23:07;100857.28;;;16.91;100.00
52949;BME280;38812;50.942;3.644;2022-08-25T05:25:32;100849.59;;;17.03;100.00
52949;BME280;38812;50.942;3.644;2022-08-25T05:27:58;100843.66;;;16.98;100.00
52949;BME280;38812;50.942;3.644;2022-08-25T05:30:23;100846.94;;;17.22;100.00
52949;BME280;38812;50.942;3.644;2022-08-25T05:32:48;100855.59;;;17.26;100.00
52949;BME280;38812;50.942;3.644;2022-08-25T05:35:14;100844.91;;;17.27;100.00
52949;BME280;38812;50.942;3.644;2022-08-25T05:37:40;100865.41;;;17.42;100.00
52949;BME280;38812;50.942;3.644;2022-08-25T05:40:06;100857.66;;;17.38;100.00
52949;BME280;38812;50.942;3.644;2022-08-25T05:42:32;100841.56;;;17.41;100.00
52949;BME280;38812;50.942;3.644;2022-08-25T05:44:58;100846.97;;;17.57;100.00
52949;BME280;38812;50.942;3.644;2022-08-25T05:47:23;100834.34;;;17.62;100.00
52949;BME280;38812;50.942;3.644;2022-08-25T05:49:48;100847.78;;;17.76;100.00
52949;BME280;38812;50.942;3.644;2022-08-25T05:52:14;100851.66;;;17.88;100.00
52949;BME280;38812;50.942;3.644;2022-08-25T05:54:39;100866.72;;;18.04;100.00
52949;BME280;38812;50.942;3.644;2022-08-25T05:57:06;100868.41;;;18.23;100.00
52949;BME280;38812;50.942;3.644;2022-08-25T05:59:31;100890.72;;;18.37;100.00
52949;BME280;38812;50.942;3.644;2022-08-25T06:01:57;100890.22;;;18.46;100.00
52949;BME280;38812;50.942;3.644;2022-08-25T06:04:41;100889.00;;;18.69;100.00
52949;BME280;38812;50.942;3.644;2022-08-25T06:07:08;100895.91;;;18.89;100.00
52949;BME280;38812;50.942;3.644;2022-08-25T06:09:33;100909.69;;;19.13;100.00
52949;BME280;38812;50.942;3.644;2022-08-25T06:11:58;100941.13;;;19.38;100.00
52949;BME280;38812;50.942;3.644;2022-08-25T06:14:24;100952.31;;;19.44;100.00
52949;BME280;38812;50.942;3.644;2022-08-25T06:16:50;100964.03;;;19.58;100.00
52949;BME280;38812;50.942;3.644;2022-08-25T06:19:16;100982.59;;;19.75;100.00
52949;BME280;38812;50.942;3.644;2022-08-25T06:21:42;101003.16;;;19.89;100.00
52949;BME280;38812;50.942;3.644;2022-08-25T06:24:08;101052.22;;;20.00;100.00
52949;BME280;38812;50.942;3.644;2022-08-25T06:26:35;101077.00;;;20.18;100.00
52949;BME280;38812;50.942;3.644;2022-08-25T06:29:01;101114.16;;;20.37;100.00
52949;BME280;38812;50.942;3.644;2022-08-25T06:31:26;101126.22;;;20.44;100.00
52949;BME280;38812;50.942;3.644;2022-08-25T06:33:52;101104.63;;;20.33;100.00
52949;BME280;38812;50.942;3.644;2022-08-25T06:36:17;101088.53;;;20.34;100.00
52949;BME280;38812;50.942;3.644;2022-08-25T06:38:44;101065.53;;;20.32;100.00
52949;BME280;38812;50.942;3.644;2022-08-25T06:41:10;101087.47;;;20.37;100.00
52949;BME280;38812;50.942;3.644;2022-08-25T06:43:37;101067.78;;;20.39;100.00
52949;BME280;38812;50.942;3.644;2022-08-25T06:46:10;101055.91;;;20.29;100.00
52949;BME280;38812;50.942;3.644;2022-08-25T06:48:36;101031.63;;;20.18;100.00
52949;BME280;38812;50.942;3.644;2022-08-25T06:51:10;101035.66;;;20.41;100.00
52949;BME280;38812;50.942;3.644;2022-08-25T06:53:36;101065.78;;;20.43;100.00
52949;BME280;38812;50.942;3.644;2022-08-25T06:56:03;101111.97;;;20.59;100.00
52949;BME280;38812;50.942;3.644;2022-08-25T06:58:29;101118.94;;;20.77;100.00
52949;BME280;38812;50.942;3.644;2022-08-25T07:00:54;101149.31;;;21.05;100.00
52949;BME280;38812;50.942;3.644;2022-08-25T07:03:20;101176.13;;;21.33;100.00
52949;BME280;38812;50.942;3.644;2022-08-25T07:05:52;101202.91;;;21.62;100.00
52949;BME280;38812;50.942;3.644;2022-08-25T07:08:19;101252.69;;;21.78;100.00
52949;BME280;38812;50.942;3.644;2022-08-25T07:10:45;101293.94;;;21.88;100.00
52949;BME280;38812;50.942;3.644;2022-08-25T07:13:11;101324.66;;;22.11;100.00
52949;BME280;38812;50.942;3.644;2022-08-25T07:15:37;101329.47;;;22.20;100.00
52949;BME280;38812;50.942;3.644;2022-08-25T07:18:03;101346.66;;;22.31;100.00
52949;BME280;38812;50.942;3.644;2022-08-25T07:20:28;101346.59;;;22.46;100.00
52949;BME280;38812;50.942;3.644;2022-08-25T07:22:55;101355.94;;;22.68;100.00
52949;BME280;38812;50.942;3.644;2022-08-25T07:25:22;101357.38;;;22.87;100.00
52949;BME280;38812;50.942;3.644;2022-08-25T07:27:47;101377.13;;;23.13;100.00
52949;BME280;38812;50.942;3.644;2022-08-25T07:30:13;101382.25;;;23.31;100.00
52949;BME280;38812;50.942;3.644;2022-08-25T07:32:39;101383.53;;;23.52;100.00
52949;BME280;38812;50.942;3.644;2022-08-25T07:35:04;101377.22;;;23.66;100.00
52949;BME280;38812;50.942;3.644;2022-08-25T07:37:40;101394.75;;;23.84;100.00
52949;BME280;38812;50.942;3.644;2022-08-25T07:40:08;101386.75;;;23.97;100.00
52949;BME280;38812;50.942;3.644;2022-08-25T07:42:33;101398.91;;;24.15;100.00
52949;BME280;38812;50.942;3.644;2022-08-25T07:45:00;101391.97;;;24.38;100.00
52949;BME280;38812;50.942;3.644;2022-08-25T07:47:25;101396.03;;;24.56;100.00
52949;BME280;38812;50.942;3.644;2022-08-25T07:49:51;101389.91;;;24.67;100.00
52949;BME280;38812;50.942;3.644;2022-08-25T07:52:16;101384.84;;;24.87;100.00
52949;BME280;38812;50.942;3.644;2022-08-25T07:54:41;101399.97;;;25.01;100.00
52949;BME280;38812;50.942;3.644;2022-08-25T07:57:08;101395.28;;;25.16;100.00
52949;BME280;38812;50.942;3.644;2022-08-25T07:59:38;101388.50;;;25.23;100.00
52949;BME280;38812;50.942;3.644;2022-08-25T08:02:03;101391.53;;;25.42;100.00
52949;BME280;38812;50.942;3.644;2022-08-25T08:04:29;101388.78;;;25.55;100.00
52949;BME280;38812;50.942;3.644;2022-08-25T08:06:54;101398.09;;;25.75;100.00
52949;BME280;38812;50.942;3.644;2022-08-25T08:09:19;101402.31;;;25.90;100.00
52949;BME280;38812;50.942;3.644;2022-08-25T08:11:45;101395.38;;;26.10;100.00
52949;BME280;38812;50.942;3.644;2022-08-25T08:14:10;101403.34;;;26.22;100.00
52949;BME280;38812;50.942;3.644;2022-08-25T08:16:37;101396.81;;;26.38;99.82
52949;BME280;38812;50.942;3.644;2022-08-25T08:19:03;101389.59;;;26.49;100.00
52949;BME280;38812;50.942;3.644;2022-08-25T08:21:32;101393.63;;;26.77;93.47
52949;BME280;38812;50.942;3.644;2022-08-25T08:23:58;101402.22;;;27.05;84.78
52949;BME280;38812;50.942;3.644;2022-08-25T08:26:24;101397.38;;;27.30;79.21
52949;BME280;38812;50.942;3.644;2022-08-25T08:28:50;101401.59;;;27.55;74.76
52949;BME280;38812;50.942;3.644;2022-08-25T08:31:20;101391.97;;;27.74;75.38
52949;BME280;38812;50.942;3.644;2022-08-25T08:33:47;101386.94;;;28.01;69.07
52949;BME280;38812;50.942;3.644;2022-08-25T08:36:13;101385.78;;;28.36;70.09
52949;BME280;38812;50.942;3.644;2022-08-25T08:38:40;101389.91;;;28.70;67.45
52949;BME280;38812;50.942;3.644;2022-08-25T08:41:19;101380.09;;;29.09;65.75
52949;BME280;38812;50.942;3.644;2022-08-25T08:47:06;101382.78;;;30.44;55.73
52949;BME280;38812;50.942;3.644;2022-08-25T08:52:11;101395.81;;;32.03;50.79
52949;BME280;38812;50.942;3.644;2022-08-25T08:54:40;101385.19;;;32.70;46.29
52949;BME280;38812;50.942;3.644;2022-08-25T08:57:17;101392.13;;;32.90;46.13
52949;BME280;38812;50.942;3.644;2022-08-25T08:59:49;101392.81;;;33.00;46.95
52949;BME280;38812;50.942;3.644;2022-08-25T09:03:03;101396.41;;;33.51;45.38
52949;BME280;38812;50.942;3.644;2022-08-25T09:05:27;101390.81;;;33.77;44.59
52949;BME280;38812;50.942;3.644;2022-08-25T09:07:57;101390.66;;;33.87;43.86
52949;BME280;38812;50.942;3.644;2022-08-25T09:10:27;101382.28;;;34.04;44.03
52949;BME280;38812;50.942;3.644;2022-08-25T09:13:05;101389.44;;;33.73;43.47
52949;BME280;38812;50.942;3.644;2022-08-25T09:16:00;101387.94;;;33.95;42.57
52949;BME280;38812;50.942;3.644;2022-08-25T09:19:00;101379.03;;;34.17;43.10
52949;BME280;38812;50.942;3.644;2022-08-25T09:26:44;101386.56;;;35.18;40.24
52949;BME280;38812;50.942;3.644;2022-08-25T09:29:21;101381.41;;;35.23;39.35
52949;BME280;38812;50.942;3.644;2022-08-25T09:31:48;101377.38;;;35.42;39.33
52949;BME280;38812;50.942;3.644;2022-08-25T09:34:22;101379.88;;;35.28;37.86
52949;BME280;38812;50.942;3.644;2022-08-25T09:36:48;101385.88;;;35.69;37.90
52949;BME280;38812;50.942;3.644;2022-08-25T09:39:17;101383.09;;;35.78;37.74
52949;BME280;38812;50.942;3.644;2022-08-25T09:41:55;101388.31;;;35.64;37.86
52949;BME280;38812;50.942;3.644;2022-08-25T09:44:39;101388.81;;;35.68;37.64
52949;BME280;38812;50.942;3.644;2022-08-25T09:47:18;101381.41;;;35.77;37.52
52949;BME280;38812;50.942;3.644;2022-08-25T09:50:01;101374.97;;;35.69;36.41
52949;BME280;38812;50.942;3.644;2022-08-25T09:54:57;101377.88;;;35.45;37.21
52949;BME280;38812;50.942;3.644;2022-08-25T10:02:38;101371.38;;;34.76;38.17
52949;BME280;38812;50.942;3.644;2022-08-25T10:05:25;101377.31;;;34.24;38.26
52949;BME280;38812;50.942;3.644;2022-08-25T10:07:57;101372.22;;;34.05;38.53
52949;BME280;38812;50.942;3.644;2022-08-25T10:10:52;101368.66;;;33.80;39.62
52949;BME280;38812;50.942;3.644;2022-08-25T10:13:18;101365.97;;;33.06;39.06
52949;BME280;38812;50.942;3.644;2022-08-25T10:15:44;101368.72;;;33.22;40.36
52949;BME280;38812;50.942;3.644;2022-08-25T10:18:29;101359.00;;;33.03;39.90
52949;BME280;38812;50.942;3.644;2022-08-25T10:21:14;101360.47;;;34.13;39.51
52949;BME280;38812;50.942;3.644;2022-08-25T10:23:47;101358.59;;;34.85;37.54
52949;BME280;38812;50.942;3.644;2022-08-25T10:32:14;101363.38;;;33.79;38.63
52949;BME280;38812;50.942;3.644;2022-08-25T10:34:53;101361.84;;;33.76;38.23
52949;BME280;38812;50.942;3.644;2022-08-25T10:37:24;101367.09;;;33.45;38.81
52949;BME280;38812;50.942;3.644;2022-08-25T10:45:11;101348.09;;;33.03;39.29
52949;BME280;38812;50.942;3.644;2022-08-25T10:51:01;101350.31;;;32.65;39.14
52949;BME280;38812;50.942;3.644;2022-08-25T10:56:15;101353.22;;;32.72;39.24
52949;BME280;38812;50.942;3.644;2022-08-25T11:01:39;101351.63;;;32.87;40.60
52949;BME280;38812;50.942;3.644;2022-08-25T11:04:10;101354.81;;;32.49;42.97
52949;BME280;38812;50.942;3.644;2022-08-25T11:06:42;101347.28;;;32.34;43.62
52949;BME280;38812;50.942;3.644;2022-08-25T11:09:15;101362.47;;;32.79;43.62
52949;BME280;38812;50.942;3.644;2022-08-25T11:14:21;101353.31;;;32.54;44.87
52949;BME280;38812;50.942;3.644;2022-08-25T11:16:54;101348.91;;;32.27;44.68
52949;BME280;38812;50.942;3.644;2022-08-25T11:19:39;101346.19;;;32.27;45.61
52949;BME280;38812;50.942;3.644;2022-08-25T11:22:22;101349.78;;;32.62;45.57
52949;BME280;38812;50.942;3.644;2022-08-25T11:25:04;101353.16;;;32.56;44.96
52949;BME280;38812;50.942;3.644;2022-08-25T11:27:46;101348.19;;;32.43;44.78
52949;BME280;38812;50.942;3.644;2022-08-25T11:30:13;101343.72;;;32.68;43.99
52949;BME280;38812;50.942;3.644;2022-08-25T11:32:43;101342.34;;;32.64;44.54
52949;BME280;38812;50.942;3.644;2022-08-25T11:35:12;101341.63;;;32.62;44.42
52949;BME280;38812;50.942;3.644;2022-08-25T11:37:45;101347.97;;;32.36;48.16
52949;BME280;38812;50.942;3.644;2022-08-25T11:40:45;101349.44;;;32.05;50.57
52949;BME280;38812;50.942;3.644;2022-08-25T11:49:06;101336.88;;;32.64;50.73
52949;BME280;38812;50.942;3.644;2022-08-25T11:51:31;101338.00;;;33.46;50.06
52949;BME280;38812;50.942;3.644;2022-08-25T11:56:38;101335.63;;;33.91;46.52
52949;BME280;38812;50.942;3.644;2022-08-25T11:59:06;101339.53;;;33.48;47.35
52949;BME280;38812;50.942;3.644;2022-08-25T12:04:33;101336.31;;;33.77;49.11
52949;BME280;38812;50.942;3.644;2022-08-25T12:26:08;101351.13;;;33.75;50.11
52949;BME280;38812;50.942;3.644;2022-08-25T12:28:41;101349.72;;;33.62;50.65
52949;BME280;38812;50.942;3.644;2022-08-25T12:31:18;101326.75;;;32.74;50.56
52949;BME280;38812;50.942;3.644;2022-08-25T12:34:10;101333.56;;;32.78;51.43
52949;BME280;38812;50.942;3.644;2022-08-25T12:36:54;101332.19;;;32.74;50.93
52949;BME280;38812;50.942;3.644;2022-08-25T12:39:27;101330.22;;;33.00;52.68
52949;BME280;38812;50.942;3.644;2022-08-25T12:42:05;101334.78;;;32.84;52.93
52949;BME280;38812;50.942;3.644;2022-08-25T12:44:40;101337.63;;;32.74;53.20
52949;BME280;38812;50.942;3.644;2022-08-25T12:47:27;101342.00;;;32.67;52.97
52949;BME280;38812;50.942;3.644;2022-08-25T12:52:49;101344.97;;;32.82;52.20
52949;BME280;38812;50.942;3.644;2022-08-25T12:55:15;101340.75;;;32.53;50.79
52949;BME280;38812;50.942;3.644;2022-08-25T12:57:45;101346.44;;;32.68;50.70
52949;BME280;38812;50.942;3.644;2022-08-25T13:08:48;101324.81;;;32.24;55.56
52949;BME280;38812;50.942;3.644;2022-08-25T13:11:50;101333.81;;;32.59;55.88
52949;BME280;38812;50.942;3.644;2022-08-25T13:14:33;101333.13;;;32.23;58.51
52949;BME280;38812;50.942;3.644;2022-08-25T13:17:01;101330.09;;;31.82;60.17
52949;BME280;38812;50.942;3.644;2022-08-25T13:19:27;101342.44;;;31.77;61.10
52949;BME280;38812;50.942;3.644;2022-08-25T13:21:54;101335.56;;;31.90;62.30
52949;BME280;38812;50.942;3.644;2022-08-25T13:24:25;101336.50;;;31.63;63.07
52949;BME280;38812;50.942;3.644;2022-08-25T13:27:05;101338.06;;;31.84;60.66
52949;BME280;38812;50.942;3.644;2022-08-25T13:29:33;101337.63;;;31.71;60.92
52949;BME280;38812;50.942;3.644;2022-08-25T13:32:04;101339.94;;;31.48;63.53
52949;BME280;38812;50.942;3.644;2022-08-25T13:34:40;101325.81;;;31.44;66.21
52949;BME280;38812;50.942;3.644;2022-08-25T13:37:14;101329.84;;;31.40;70.05
52949;BME280;38812;50.942;3.644;2022-08-25T13:42:33;101336.38;;;30.84;76.27
52949;BME280;38812;50.942;3.644;2022-08-25T13:45:01;101335.63;;;30.64;79.48
52949;BME280;38812;50.942;3.644;2022-08-25T13:52:39;101336.78;;;30.15;91.24
52949;BME280;38812;50.942;3.644;2022-08-25T13:55:05;101351.06;;;29.88;95.51
52949;BME280;38812;50.942;3.644;2022-08-25T13:57:31;101346.97;;;29.55;99.65
52949;BME280;38812;50.942;3.644;2022-08-25T14:00:04;101345.56;;;29.42;100.00
52949;BME280;38812;50.942;3.644;2022-08-25T14:02:52;101345.94;;;29.27;100.00
52949;BME280;38812;50.942;3.644;2022-08-25T14:05:32;101343.09;;;29.39;100.00
52949;BME280;38812;50.942;3.644;2022-08-25T14:07:58;101354.75;;;29.01;100.00
52949;BME280;38812;50.942;3.644;2022-08-25T14:10:37;101349.25;;;28.81;100.00
52949;BME280;38812;50.942;3.644;2022-08-25T14:13:14;101352.84;;;28.61;100.00
52949;BME280;38812;50.942;3.644;2022-08-25T14:15:42;101359.16;;;28.71;100.00
52949;BME280;38812;50.942;3.644;2022-08-25T14:18:19;101361.25;;;28.88;100.00
52949;BME280;38812;50.942;3.644;2022-08-25T14:20:48;101365.59;;;28.80;100.00
52949;BME280;38812;50.942;3.644;2022-08-25T14:23:18;101364.78;;;28.49;100.00
52949;BME280;38812;50.942;3.644;2022-08-25T14:25:46;101366.75;;;28.47;100.00
52949;BME280;38812;50.942;3.644;2022-08-25T14:28:16;101367.50;;;28.28;100.00
52949;BME280;38812;50.942;3.644;2022-08-25T14:30:53;101374.91;;;28.26;100.00
52949;BME280;38812;50.942;3.644;2022-08-25T14:33:27;101374.91;;;28.26;100.00